sensor_id;sensor_type;location;lat;lon;timestamp;P1;durP1;ratioP1;P2;durP2;ratioP2
59302;SDS011;45074;52.764;6.896;2022-09-09T00:00:23;12.02;;;6.90;;
59302;SDS011;45074;52.764;6.896;2022-09-09T00:02:54;10.15;;;6.70;;
59302;SDS011;45074;52.764;6.896;2022-09-09T00:08:31;12.85;;;6.50;;
59302;SDS011;45074;52.764;6.896;2022-09-09T00:11:04;10.57;;;6.80;;
59302;SDS011;45074;52.764;6.896;2022-09-09T00:13:34;11.18;;;6.60;;
59302;SDS011;45074;52.764;6.896;2022-09-09T00:21:38;11.52;;;6.35;;
59302;SDS011;45074;52.764;6.896;2022-09-09T00:24:11;11.45;;;6.25;;
59302;SDS011;45074;52.764;6.896;2022-09-09T00:26:51;10.90;;;6.53;;
59302;SDS011;45074;52.764;6.896;2022-09-09T00:29:28;9.40;;;6.15;;
59302;SDS011;45074;52.764;6.896;2022-09-09T00:32:15;11.20;;;6.40;;
59302;SDS011;45074;52.764;6.896;2022-09-09T00:34:52;11.63;;;6.57;;
59302;SDS011;45074;52.764;6.896;2022-09-09T00:37:37;12.10;;;6.95;;
59302;SDS011;45074;52.764;6.896;2022-09-09T00:40:11;13.27;;;7.63;;
59302;SDS011;45074;52.764;6.896;2022-09-09T00:42:48;12.70;;;6.47;;
59302;SDS011;45074;52.764;6.896;2022-09-09T00:48:12;13.85;;;6.80;;
59302;SDS011;45074;52.764;6.896;2022-09-09T00:50:46;11.63;;;6.97;;
59302;SDS011;45074;52.764;6.896;2022-09-09T00:56:25;12.65;;;6.47;;
59302;SDS011;45074;52.764;6.896;2022-09-09T00:59:40;11.63;;;6.50;;
59302;SDS011;45074;52.764;6.896;2022-09-09T01:05:33;12.50;;;6.60;;
59302;SDS011;45074;52.764;6.896;2022-09-09T01:08:36;11.65;;;6.63;;
59302;SDS011;45074;52.764;6.896;2022-09-09T01:11:01;10.30;;;6.40;;
59302;SDS011;45074;52.764;6.896;2022-09-09T01:13:29;9.65;;;5.93;;
59302;SDS011;45074;52.764;6.896;2022-09-09T01:15:56;10.85;;;5.60;;
59302;SDS011;45074;52.764;6.896;2022-09-09T01:18:26;10.75;;;6.05;;
59302;SDS011;45074;52.764;6.896;2022-09-09T01:24:08;10.13;;;5.93;;
59302;SDS011;45074;52.764;6.896;2022-09-09T01:26:37;11.82;;;6.05;;
59302;SDS011;45074;52.764;6.896;2022-09-09T01:29:09;9.77;;;5.80;;
59302;SDS011;45074;52.764;6.896;2022-09-09T01:31:51;10.65;;;6.05;;
59302;SDS011;45074;52.764;6.896;2022-09-09T01:34:19;9.15;;;5.75;;
59302;SDS011;45074;52.764;6.896;2022-09-09T01:39:18;12.68;;;6.07;;
59302;SDS011;45074;52.764;6.896;2022-09-09T01:41:45;9.95;;;6.30;;
59302;SDS011;45074;52.764;6.896;2022-09-09T01:44:12;9.77;;;5.82;;
59302;SDS011;45074;52.764;6.896;2022-09-09T01:46:38;12.90;;;7.10;;
59302;SDS011;45074;52.764;6.896;2022-09-09T01:49:04;15.15;;;6.75;;
59302;SDS011;45074;52.764;6.896;2022-09-09T01:51:32;10.20;;;6.25;;
59302;SDS011;45074;52.764;6.896;2022-09-09T01:53:58;12.23;;;6.57;;
59302;SDS011;45074;52.764;6.896;2022-09-09T01:56:35;11.25;;;6.25;;
59302;SDS011;45074;52.764;6.896;2022-09-09T01:59:11;12.90;;;6.55;;
59302;SDS011;45074;52.764;6.896;2022-09-09T02:02:11;10.55;;;6.32;;
59302;SDS011;45074;52.764;6.896;2022-09-09T02:07:40;9.75;;;6.40;;
59302;SDS011;45074;52.764;6.896;2022-09-09T02:12:37;10.98;;;6.63;;
59302;SDS011;45074;52.764;6.896;2022-09-09T02:15:07;12.63;;;6.15;;
59302;SDS011;45074;52.764;6.896;2022-09-09T02:17:39;11.02;;;6.53;;
59302;SDS011;45074;52.764;6.896;2022-09-09T02:20:08;13.80;;;7.10;;
59302;SDS011;45074;52.764;6.896;2022-09-09T02:22:38;11.30;;;6.78;;
59302;SDS011;45074;52.764;6.896;2022-09-09T02:25:09;13.38;;;7.00;;
59302;SDS011;45074;52.764;6.896;2022-09-09T02:27:37;11.60;;;6.70;;
59302;SDS011;45074;52.764;6.896;2022-09-09T02:30:04;10.43;;;6.88;;
59302;SDS011;45074;52.764;6.896;2022-09-09T02:32:30;11.23;;;7.10;;
59302;SDS011;45074;52.764;6.896;2022-09-09T02:35:03;10.48;;;7.22;;
59302;SDS011;45074;52.764;6.896;2022-09-09T02:37:36;13.82;;;7.18;;
59302;SDS011;45074;52.764;6.896;2022-09-09T02:40:08;8.60;;;6.15;;
59302;SDS011;45074;52.764;6.896;2022-09-09T02:42:40;11.45;;;6.90;;
59302;SDS011;45074;52.764;6.896;2022-09-09T02:45:07;12.68;;;6.57;;
59302;SDS011;45074;52.764;6.896;2022-09-09T02:55:38;12.90;;;7.13;;
59302;SDS011;45074;52.764;6.896;2022-09-09T02:58:08;11.27;;;6.68;;
59302;SDS011;45074;52.764;6.896;2022-09-09T03:00:37;10.80;;;6.30;;
59302;SDS011;45074;52.764;6.896;2022-09-09T03:03:05;11.32;;;5.63;;
59302;SDS011;45074;52.764;6.896;2022-09-09T03:05:32;11.45;;;5.72;;
59302;SDS011;45074;52.764;6.896;2022-09-09T03:07:58;13.13;;;5.40;;
59302;SDS011;45074;52.764;6.896;2022-09-09T03:10:24;8.75;;;5.32;;
59302;SDS011;45074;52.764;6.896;2022-09-09T03:12:50;9.10;;;5.03;;
59302;SDS011;45074;52.764;6.896;2022-09-09T03:15:16;9.18;;;4.38;;
59302;SDS011;45074;52.764;6.896;2022-09-09T03:17:42;7.13;;;4.32;;
59302;SDS011;45074;52.764;6.896;2022-09-09T03:20:08;7.60;;;3.83;;
59302;SDS011;45074;52.764;6.896;2022-09-09T03:22:35;7.65;;;4.03;;
59302;SDS011;45074;52.764;6.896;2022-09-09T03:25:01;6.45;;;3.53;;
59302;SDS011;45074;52.764;6.896;2022-09-09T03:27:28;6.75;;;2.88;;
59302;SDS011;45074;52.764;6.896;2022-09-09T03:29:54;4.47;;;2.50;;
59302;SDS011;45074;52.764;6.896;2022-09-09T03:32:20;6.38;;;2.28;;
59302;SDS011;45074;52.764;6.896;2022-09-09T03:34:47;3.25;;;1.60;;
59302;SDS011;45074;52.764;6.896;2022-09-09T03:37:15;4.68;;;1.92;;
59302;SDS011;45074;52.764;6.896;2022-09-09T03:39:41;5.95;;;2.10;;
59302;SDS011;45074;52.764;6.896;2022-09-09T03:42:07;6.30;;;2.28;;
59302;SDS011;45074;52.764;6.896;2022-09-09T03:44:33;7.10;;;2.78;;
59302;SDS011;45074;52.764;6.896;2022-09-09T03:46:59;7.20;;;3.63;;
59302;SDS011;45074;52.764;6.896;2022-09-09T03:49:26;9.18;;;4.50;;
59302;SDS011;45074;52.764;6.896;2022-09-09T03:51:54;9.80;;;5.25;;
59302;SDS011;45074;52.764;6.896;2022-09-09T03:54:22;9.25;;;5.20;;
59302;SDS011;45074;52.764;6.896;2022-09-09T03:56:48;12.98;;;7.40;;
59302;SDS011;45074;52.764;6.896;2022-09-09T03:59:14;10.65;;;6.75;;
59302;SDS011;45074;52.764;6.896;2022-09-09T04:01:41;13.15;;;7.53;;
59302;SDS011;45074;52.764;6.896;2022-09-09T04:04:07;14.85;;;8.75;;
59302;SDS011;45074;52.764;6.896;2022-09-09T04:06:34;13.05;;;8.90;;
59302;SDS011;45074;52.764;6.896;2022-09-09T04:09:00;14.73;;;9.30;;
59302;SDS011;45074;52.764;6.896;2022-09-09T04:11:28;13.30;;;9.13;;
59302;SDS011;45074;52.764;6.896;2022-09-09T04:13:54;14.20;;;8.90;;
59302;SDS011;45074;52.764;6.896;2022-09-09T04:16:20;14.18;;;9.35;;
59302;SDS011;45074;52.764;6.896;2022-09-09T04:18:46;14.02;;;9.27;;
59302;SDS011;45074;52.764;6.896;2022-09-09T04:21:13;12.30;;;8.77;;
59302;SDS011;45074;52.764;6.896;2022-09-09T04:23:41;14.00;;;9.20;;
59302;SDS011;45074;52.764;6.896;2022-09-09T04:26:07;13.80;;;8.75;;
59302;SDS011;45074;52.764;6.896;2022-09-09T04:28:34;13.93;;;8.80;;
59302;SDS011;45074;52.764;6.896;2022-09-09T04:31:05;12.90;;;8.70;;
59302;SDS011;45074;52.764;6.896;2022-09-09T04:33:49;13.82;;;8.98;;
59302;SDS011;45074;52.764;6.896;2022-09-09T04:36:16;14.13;;;8.70;;
59302;SDS011;45074;52.764;6.896;2022-09-09T04:38:43;12.68;;;8.50;;
59302;SDS011;45074;52.764;6.896;2022-09-09T04:41:09;13.65;;;8.50;;
59302;SDS011;45074;52.764;6.896;2022-09-09T04:43:36;11.13;;;8.00;;
59302;SDS011;45074;52.764;6.896;2022-09-09T04:46:02;13.73;;;8.52;;
59302;SDS011;45074;52.764;6.896;2022-09-09T04:48:28;13.55;;;8.45;;
59302;SDS011;45074;52.764;6.896;2022-09-09T04:51:14;14.02;;;8.13;;
59302;SDS011;45074;52.764;6.896;2022-09-09T04:53:40;14.00;;;8.40;;
59302;SDS011;45074;52.764;6.896;2022-09-09T04:56:07;12.93;;;8.13;;
59302;SDS011;45074;52.764;6.896;2022-09-09T04:58:37;12.68;;;8.25;;
59302;SDS011;45074;52.764;6.896;2022-09-09T05:01:22;13.15;;;8.35;;
59302;SDS011;45074;52.764;6.896;2022-09-09T05:03:49;13.63;;;8.23;;
59302;SDS011;45074;52.764;6.896;2022-09-09T05:06:18;12.60;;;8.30;;
59302;SDS011;45074;52.764;6.896;2022-09-09T05:08:44;13.98;;;8.27;;
59302;SDS011;45074;52.764;6.896;2022-09-09T05:11:14;12.48;;;8.10;;
59302;SDS011;45074;52.764;6.896;2022-09-09T05:13:41;12.13;;;8.20;;
59302;SDS011;45074;52.764;6.896;2022-09-09T05:16:08;13.13;;;7.97;;
59302;SDS011;45074;52.764;6.896;2022-09-09T05:18:36;12.05;;;7.68;;
59302;SDS011;45074;52.764;6.896;2022-09-09T05:21:02;12.10;;;7.43;;
59302;SDS011;45074;52.764;6.896;2022-09-09T05:23:28;11.60;;;7.85;;
59302;SDS011;45074;52.764;6.896;2022-09-09T05:25:57;11.88;;;7.75;;
59302;SDS011;45074;52.764;6.896;2022-09-09T05:28:24;13.05;;;7.95;;
59302;SDS011;45074;52.764;6.896;2022-09-09T05:30:57;12.02;;;8.25;;
59302;SDS011;45074;52.764;6.896;2022-09-09T05:33:25;12.05;;;7.60;;
59302;SDS011;45074;52.764;6.896;2022-09-09T05:35:58;11.75;;;7.53;;
59302;SDS011;45074;52.764;6.896;2022-09-09T05:38:37;12.32;;;8.02;;
59302;SDS011;45074;52.764;6.896;2022-09-09T05:41:04;12.50;;;7.95;;
59302;SDS011;45074;52.764;6.896;2022-09-09T05:43:30;13.00;;;7.88;;
59302;SDS011;45074;52.764;6.896;2022-09-09T05:46:17;11.35;;;7.75;;
59302;SDS011;45074;52.764;6.896;2022-09-09T05:48:44;11.00;;;7.50;;
59302;SDS011;45074;52.764;6.896;2022-09-09T05:51:12;12.23;;;7.88;;
59302;SDS011;45074;52.764;6.896;2022-09-09T05:56:09;11.73;;;7.80;;
59302;SDS011;45074;52.764;6.896;2022-09-09T05:58:36;11.25;;;7.45;;
59302;SDS011;45074;52.764;6.896;2022-09-09T06:01:14;10.82;;;7.15;;
59302;SDS011;45074;52.764;6.896;2022-09-09T06:03:40;10.10;;;7.32;;
59302;SDS011;45074;52.764;6.896;2022-09-09T06:06:09;10.80;;;7.65;;
59302;SDS011;45074;52.764;6.896;2022-09-09T06:08:37;10.93;;;7.63;;
59302;SDS011;45074;52.764;6.896;2022-09-09T06:11:06;10.38;;;7.25;;
59302;SDS011;45074;52.764;6.896;2022-09-09T06:13:33;12.40;;;7.28;;
59302;SDS011;45074;52.764;6.896;2022-09-09T06:16:00;10.55;;;7.35;;
59302;SDS011;45074;52.764;6.896;2022-09-09T06:18:26;11.75;;;7.05;;
59302;SDS011;45074;52.764;6.896;2022-09-09T06:20:53;12.60;;;7.72;;
59302;SDS011;45074;52.764;6.896;2022-09-09T06:23:23;11.80;;;7.90;;
59302;SDS011;45074;52.764;6.896;2022-09-09T06:25:49;10.90;;;7.22;;
59302;SDS011;45074;52.764;6.896;2022-09-09T06:28:16;12.25;;;7.60;;
59302;SDS011;45074;52.764;6.896;2022-09-09T06:30:42;10.15;;;7.10;;
59302;SDS011;45074;52.764;6.896;2022-09-09T06:33:09;14.23;;;8.00;;
59302;SDS011;45074;52.764;6.896;2022-09-09T06:35:35;12.13;;;7.47;;
59302;SDS011;45074;52.764;6.896;2022-09-09T06:38:02;11.57;;;7.35;;
59302;SDS011;45074;52.764;6.896;2022-09-09T06:40:28;11.98;;;7.93;;
59302;SDS011;45074;52.764;6.896;2022-09-09T06:42:58;10.77;;;7.32;;
59302;SDS011;45074;52.764;6.896;2022-09-09T06:45:25;11.82;;;7.45;;
59302;SDS011;45074;52.764;6.896;2022-09-09T06:47:54;12.35;;;7.50;;
59302;SDS011;45074;52.764;6.896;2022-09-09T06:50:20;11.27;;;7.18;;
59302;SDS011;45074;52.764;6.896;2022-09-09T06:52:46;10.65;;;7.13;;
59302;SDS011;45074;52.764;6.896;2022-09-09T06:55:12;10.93;;;7.55;;
59302;SDS011;45074;52.764;6.896;2022-09-09T06:57:40;10.35;;;7.03;;
59302;SDS011;45074;52.764;6.896;2022-09-09T07:00:06;12.10;;;7.90;;
59302;SDS011;45074;52.764;6.896;2022-09-09T07:02:33;11.63;;;7.65;;
59302;SDS011;45074;52.764;6.896;2022-09-09T07:05:04;11.60;;;7.88;;
59302;SDS011;45074;52.764;6.896;2022-09-09T07:07:30;10.32;;;7.32;;
59302;SDS011;45074;52.764;6.896;2022-09-09T07:09:56;12.43;;;7.20;;
59302;SDS011;45074;52.764;6.896;2022-09-09T07:12:22;13.63;;;7.70;;
59302;SDS011;45074;52.764;6.896;2022-09-09T07:14:48;12.07;;;7.95;;
59302;SDS011;45074;52.764;6.896;2022-09-09T07:17:14;13.55;;;8.38;;
59302;SDS011;45074;52.764;6.896;2022-09-09T07:19:40;12.18;;;8.18;;
59302;SDS011;45074;52.764;6.896;2022-09-09T07:22:07;11.13;;;8.02;;
59302;SDS011;45074;52.764;6.896;2022-09-09T07:24:34;11.90;;;7.72;;
59302;SDS011;45074;52.764;6.896;2022-09-09T07:27:00;14.00;;;8.20;;
59302;SDS011;45074;52.764;6.896;2022-09-09T07:29:26;11.18;;;7.93;;
59302;SDS011;45074;52.764;6.896;2022-09-09T07:31:52;11.30;;;8.35;;
59302;SDS011;45074;52.764;6.896;2022-09-09T07:34:18;12.20;;;7.75;;
59302;SDS011;45074;52.764;6.896;2022-09-09T07:36:44;11.77;;;7.95;;
59302;SDS011;45074;52.764;6.896;2022-09-09T07:39:12;12.40;;;8.25;;
59302;SDS011;45074;52.764;6.896;2022-09-09T07:41:39;12.57;;;8.60;;
59302;SDS011;45074;52.764;6.896;2022-09-09T07:44:14;13.10;;;7.57;;
59302;SDS011;45074;52.764;6.896;2022-09-09T07:46:46;11.45;;;8.35;;
59302;SDS011;45074;52.764;6.896;2022-09-09T07:49:12;11.75;;;7.95;;
59302;SDS011;45074;52.764;6.896;2022-09-09T07:51:39;13.00;;;8.02;;
59302;SDS011;45074;52.764;6.896;2022-09-09T07:54:08;12.65;;;8.68;;
59302;SDS011;45074;52.764;6.896;2022-09-09T07:56:36;15.27;;;8.55;;
59302;SDS011;45074;52.764;6.896;2022-09-09T07:59:03;15.77;;;7.90;;
59302;SDS011;45074;52.764;6.896;2022-09-09T08:01:32;10.18;;;7.75;;
59302;SDS011;45074;52.764;6.896;2022-09-09T08:04:06;11.40;;;7.20;;
59302;SDS011;45074;52.764;6.896;2022-09-09T08:06:38;11.18;;;7.85;;
59302;SDS011;45074;52.764;6.896;2022-09-09T08:09:05;11.52;;;7.90;;
59302;SDS011;45074;52.764;6.896;2022-09-09T08:11:31;12.07;;;7.68;;
59302;SDS011;45074;52.764;6.896;2022-09-09T08:14:01;13.02;;;8.43;;
59302;SDS011;45074;52.764;6.896;2022-09-09T08:16:28;12.07;;;8.15;;
59302;SDS011;45074;52.764;6.896;2022-09-09T08:18:56;12.10;;;7.82;;
59302;SDS011;45074;52.764;6.896;2022-09-09T08:21:27;11.43;;;7.60;;
59302;SDS011;45074;52.764;6.896;2022-09-09T08:23:55;11.90;;;8.13;;
59302;SDS011;45074;52.764;6.896;2022-09-09T08:26:23;10.82;;;7.75;;
59302;SDS011;45074;52.764;6.896;2022-09-09T08:28:54;11.45;;;7.18;;
59302;SDS011;45074;52.764;6.896;2022-09-09T08:31:22;10.95;;;7.10;;
59302;SDS011;45074;52.764;6.896;2022-09-09T08:33:50;11.48;;;7.72;;
59302;SDS011;45074;52.764;6.896;2022-09-09T08:36:18;12.77;;;7.93;;
59302;SDS011;45074;52.764;6.896;2022-09-09T08:38:50;11.18;;;6.38;;
59302;SDS011;45074;52.764;6.896;2022-09-09T08:46:59;8.68;;;4.97;;
59302;SDS011;45074;52.764;6.896;2022-09-09T08:52:13;12.80;;;5.05;;
59302;SDS011;45074;52.764;6.896;2022-09-09T08:54:44;11.18;;;4.53;;
59302;SDS011;45074;52.764;6.896;2022-09-09T08:57:11;10.43;;;5.13;;
59302;SDS011;45074;52.764;6.896;2022-09-09T08:59:42;10.90;;;4.80;;
59302;SDS011;45074;52.764;6.896;2022-09-09T09:07:44;10.73;;;4.50;;
59302;SDS011;45074;52.764;6.896;2022-09-09T09:10:51;14.30;;;4.85;;
59302;SDS011;45074;52.764;6.896;2022-09-09T09:13:35;9.45;;;4.40;;
59302;SDS011;45074;52.764;6.896;2022-09-09T09:16:32;10.52;;;4.50;;
59302;SDS011;45074;52.764;6.896;2022-09-09T09:19:18;10.57;;;4.40;;
59302;SDS011;45074;52.764;6.896;2022-09-09T09:24:56;10.57;;;3.95;;
59302;SDS011;45074;52.764;6.896;2022-09-09T09:27:41;10.25;;;3.97;;
59302;SDS011;45074;52.764;6.896;2022-09-09T09:30:41;8.00;;;4.10;;
59302;SDS011;45074;52.764;6.896;2022-09-09T09:33:21;10.43;;;3.72;;
59302;SDS011;45074;52.764;6.896;2022-09-09T09:36:09;10.07;;;3.95;;
59302;SDS011;45074;52.764;6.896;2022-09-09T09:38:35;10.30;;;3.42;;
59302;SDS011;45074;52.764;6.896;2022-09-09T09:41:02;10.50;;;3.60;;
59302;SDS011;45074;52.764;6.896;2022-09-09T09:43:29;10.40;;;3.60;;
59302;SDS011;45074;52.764;6.896;2022-09-09T09:45:57;10.77;;;3.45;;
59302;SDS011;45074;52.764;6.896;2022-09-09T09:48:23;9.32;;;3.15;;
59302;SDS011;45074;52.764;6.896;2022-09-09T09:53:21;11.38;;;3.00;;
59302;SDS011;45074;52.764;6.896;2022-09-09T09:56:04;11.80;;;2.85;;
59302;SDS011;45074;52.764;6.896;2022-09-09T10:01:25;11.55;;;3.22;;
59302;SDS011;45074;52.764;6.896;2022-09-09T10:04:02;9.20;;;2.65;;
59302;SDS011;45074;52.764;6.896;2022-09-09T10:06:49;9.35;;;3.08;;
59302;SDS011;45074;52.764;6.896;2022-09-09T10:09:23;12.13;;;2.97;;
59302;SDS011;45074;52.764;6.896;2022-09-09T10:14:30;9.68;;;2.60;;
59302;SDS011;45074;52.764;6.896;2022-09-09T10:22:36;7.10;;;2.47;;
59302;SDS011;45074;52.764;6.896;2022-09-09T10:25:15;6.88;;;2.72;;
59302;SDS011;45074;52.764;6.896;2022-09-09T10:38:42;8.60;;;2.40;;
59302;SDS011;45074;52.764;6.896;2022-09-09T10:51:59;7.15;;;2.00;;
59302;SDS011;45074;52.764;6.896;2022-09-09T10:57:39;9.48;;;2.13;;
59302;SDS011;45074;52.764;6.896;2022-09-09T11:00:35;8.30;;;2.22;;
59302;SDS011;45074;52.764;6.896;2022-09-09T11:06:07;5.53;;;1.73;;
59302;SDS011;45074;52.764;6.896;2022-09-09T11:08:44;8.02;;;2.00;;
59302;SDS011;45074;52.764;6.896;2022-09-09T11:11:19;5.93;;;1.83;;
59302;SDS011;45074;52.764;6.896;2022-09-09T11:14:05;5.97;;;1.80;;
59302;SDS011;45074;52.764;6.896;2022-09-09T11:16:50;8.70;;;2.08;;
59302;SDS011;45074;52.764;6.896;2022-09-09T11:22:06;7.82;;;2.00;;
59302;SDS011;45074;52.764;6.896;2022-09-09T11:27:36;5.93;;;1.88;;
59302;SDS011;45074;52.764;6.896;2022-09-09T11:33:07;7.00;;;2.08;;
59302;SDS011;45074;52.764;6.896;2022-09-09T11:43:24;6.70;;;1.80;;
59302;SDS011;45074;52.764;6.896;2022-09-09T11:46:09;6.10;;;1.70;;
59302;SDS011;45074;52.764;6.896;2022-09-09T11:48:43;6.60;;;1.85;;
59302;SDS011;45074;52.764;6.896;2022-09-09T11:56:23;8.27;;;1.70;;
59302;SDS011;45074;52.764;6.896;2022-09-09T12:01:29;5.13;;;1.80;;
59302;SDS011;45074;52.764;6.896;2022-09-09T12:06:44;5.95;;;1.58;;
59302;SDS011;45074;52.764;6.896;2022-09-09T12:11:48;5.60;;;1.60;;
59302;SDS011;45074;52.764;6.896;2022-09-09T12:14:21;6.60;;;1.90;;
59302;SDS011;45074;52.764;6.896;2022-09-09T12:19:45;5.82;;;1.70;;
59302;SDS011;45074;52.764;6.896;2022-09-09T12:33:42;5.93;;;1.40;;
59302;SDS011;45074;52.764;6.896;2022-09-09T12:36:23;5.65;;;1.30;;
59302;SDS011;45074;52.764;6.896;2022-09-09T12:38:53;5.88;;;1.55;;
59302;SDS011;45074;52.764;6.896;2022-09-09T12:41:23;6.55;;;1.52;;
59302;SDS011;45074;52.764;6.896;2022-09-09T12:43:50;4.63;;;1.30;;
59302;SDS011;45074;52.764;6.896;2022-09-09T12:46:32;5.82;;;1.50;;
59302;SDS011;45074;52.764;6.896;2022-09-09T12:49:01;6.53;;;1.73;;
59302;SDS011;45074;52.764;6.896;2022-09-09T12:51:29;6.00;;;1.50;;
59302;SDS011;45074;52.764;6.896;2022-09-09T12:53:56;5.20;;;1.65;;
59302;SDS011;45074;52.764;6.896;2022-09-09T12:56:24;6.55;;;1.67;;
59302;SDS011;45074;52.764;6.896;2022-09-09T12:58:52;4.68;;;1.40;;
59302;SDS011;45074;52.764;6.896;2022-09-09T13:03:49;4.53;;;1.20;;
59302;SDS011;45074;52.764;6.896;2022-09-09T13:06:23;5.30;;;1.15;;
59302;SDS011;45074;52.764;6.896;2022-09-09T13:08:53;5.28;;;1.30;;
59302;SDS011;45074;52.764;6.896;2022-09-09T13:11:22;5.65;;;1.52;;
59302;SDS011;45074;52.764;6.896;2022-09-09T13:13:54;4.38;;;1.30;;
59302;SDS011;45074;52.764;6.896;2022-09-09T13:16:25;6.13;;;1.63;;
59302;SDS011;45074;52.764;6.896;2022-09-09T13:18:55;9.05;;;2.22;;
59302;SDS011;45074;52.764;6.896;2022-09-09T13:21:30;9.27;;;2.45;;
59302;SDS011;45074;52.764;6.896;2022-09-09T13:24:00;6.65;;;2.13;;
59302;SDS011;45074;52.764;6.896;2022-09-09T13:26:28;7.03;;;2.35;;
59302;SDS011;45074;52.764;6.896;2022-09-09T13:28:55;7.45;;;2.10;;
59302;SDS011;45074;52.764;6.896;2022-09-09T13:31:33;6.53;;;2.13;;
59302;SDS011;45074;52.764;6.896;2022-09-09T13:34:12;8.27;;;2.45;;
59302;SDS011;45074;52.764;6.896;2022-09-09T13:37:05;7.43;;;2.67;;
59302;SDS011;45074;52.764;6.896;2022-09-09T13:39:50;9.52;;;2.30;;
59302;SDS011;45074;52.764;6.896;2022-09-09T13:42:24;5.80;;;1.90;;
59302;SDS011;45074;52.764;6.896;2022-09-09T13:44:52;4.88;;;1.95;;
59302;SDS011;45074;52.764;6.896;2022-09-09T13:47:34;6.00;;;2.00;;
59302;SDS011;45074;52.764;6.896;2022-09-09T13:50:17;5.65;;;1.67;;
59302;SDS011;45074;52.764;6.896;2022-09-09T13:52:45;4.10;;;1.60;;
59302;SDS011;45074;52.764;6.896;2022-09-09T13:55:11;5.18;;;1.50;;
59302;SDS011;45074;52.764;6.896;2022-09-09T13:57:37;4.13;;;1.40;;
59302;SDS011;45074;52.764;6.896;2022-09-09T14:00:02;4.80;;;1.60;;
59302;SDS011;45074;52.764;6.896;2022-09-09T14:02:29;4.70;;;1.48;;
59302;SDS011;45074;52.764;6.896;2022-09-09T14:04:56;5.00;;;1.70;;
59302;SDS011;45074;52.764;6.896;2022-09-09T14:07:21;4.15;;;1.30;;
59302;SDS011;45074;52.764;6.896;2022-09-09T14:09:47;4.32;;;1.40;;
59302;SDS011;45074;52.764;6.896;2022-09-09T14:12:15;4.95;;;1.40;;
59302;SDS011;45074;52.764;6.896;2022-09-09T14:14:42;5.05;;;1.50;;
59302;SDS011;45074;52.764;6.896;2022-09-09T14:17:08;4.35;;;1.30;;
59302;SDS011;45074;52.764;6.896;2022-09-09T14:19:34;4.18;;;1.25;;
59302;SDS011;45074;52.764;6.896;2022-09-09T14:22:02;2.50;;;0.90;;
59302;SDS011;45074;52.764;6.896;2022-09-09T14:24:28;3.25;;;1.02;;
59302;SDS011;45074;52.764;6.896;2022-09-09T14:26:54;5.75;;;1.10;;
59302;SDS011;45074;52.764;6.896;2022-09-09T14:29:20;2.60;;;1.10;;
59302;SDS011;45074;52.764;6.896;2022-09-09T14:31:45;3.58;;;1.27;;
59302;SDS011;45074;52.764;6.896;2022-09-09T14:34:11;2.38;;;1.00;;
59302;SDS011;45074;52.764;6.896;2022-09-09T14:36:38;3.13;;;0.90;;
59302;SDS011;45074;52.764;6.896;2022-09-09T14:39:03;2.17;;;1.05;;
59302;SDS011;45074;52.764;6.896;2022-09-09T14:41:29;3.80;;;1.27;;
59302;SDS011;45074;52.764;6.896;2022-09-09T14:43:55;2.00;;;1.00;;
59302;SDS011;45074;52.764;6.896;2022-09-09T14:46:22;4.57;;;1.20;;
59302;SDS011;45074;52.764;6.896;2022-09-09T14:48:48;3.88;;;0.88;;
59302;SDS011;45074;52.764;6.896;2022-09-09T14:51:15;5.43;;;1.27;;
59302;SDS011;45074;52.764;6.896;2022-09-09T14:53:41;3.80;;;1.30;;
59302;SDS011;45074;52.764;6.896;2022-09-09T14:56:08;3.42;;;1.25;;
59302;SDS011;45074;52.764;6.896;2022-09-09T14:58:37;3.72;;;1.20;;
59302;SDS011;45074;52.764;6.896;2022-09-09T15:01:06;3.33;;;1.20;;
59302;SDS011;45074;52.764;6.896;2022-09-09T15:03:40;2.65;;;0.98;;
59302;SDS011;45074;52.764;6.896;2022-09-09T15:06:14;4.15;;;1.30;;
59302;SDS011;45074;52.764;6.896;2022-09-09T15:08:40;3.95;;;1.15;;
59302;SDS011;45074;52.764;6.896;2022-09-09T15:11:08;2.35;;;1.17;;
59302;SDS011;45074;52.764;6.896;2022-09-09T15:13:35;4.13;;;1.50;;
59302;SDS011;45074;52.764;6.896;2022-09-09T15:16:12;3.90;;;1.07;;
59302;SDS011;45074;52.764;6.896;2022-09-09T15:18:40;3.30;;;1.35;;
59302;SDS011;45074;52.764;6.896;2022-09-09T15:21:17;4.85;;;1.30;;
59302;SDS011;45074;52.764;6.896;2022-09-09T15:23:46;4.38;;;1.30;;
59302;SDS011;45074;52.764;6.896;2022-09-09T15:26:12;5.07;;;1.52;;
59302;SDS011;45074;52.764;6.896;2022-09-09T15:28:42;2.95;;;1.30;;
59302;SDS011;45074;52.764;6.896;2022-09-09T15:31:13;3.92;;;1.25;;
59302;SDS011;45074;52.764;6.896;2022-09-09T15:33:46;3.60;;;1.50;;
59302;SDS011;45074;52.764;6.896;2022-09-09T15:36:15;5.25;;;1.35;;
59302;SDS011;45074;52.764;6.896;2022-09-09T15:38:42;3.13;;;1.40;;
59302;SDS011;45074;52.764;6.896;2022-09-09T15:41:09;3.85;;;1.25;;
59302;SDS011;45074;52.764;6.896;2022-09-09T15:43:35;3.38;;;1.40;;
59302;SDS011;45074;52.764;6.896;2022-09-09T15:46:05;3.47;;;1.30;;
59302;SDS011;45074;52.764;6.896;2022-09-09T15:48:52;3.20;;;1.48;;
59302;SDS011;45074;52.764;6.896;2022-09-09T15:51:19;4.78;;;2.08;;
59302;SDS011;45074;52.764;6.896;2022-09-09T15:53:45;7.15;;;1.92;;
59302;SDS011;45074;52.764;6.896;2022-09-09T15:56:11;4.35;;;1.70;;
59302;SDS011;45074;52.764;6.896;2022-09-09T15:58:36;4.32;;;1.40;;
59302;SDS011;45074;52.764;6.896;2022-09-09T16:01:03;3.88;;;1.45;;
59302;SDS011;45074;52.764;6.896;2022-09-09T16:03:30;3.80;;;1.50;;
59302;SDS011;45074;52.764;6.896;2022-09-09T16:05:59;4.60;;;1.70;;
59302;SDS011;45074;52.764;6.896;2022-09-09T16:08:30;4.22;;;1.50;;
59302;SDS011;45074;52.764;6.896;2022-09-09T16:13:34;3.85;;;1.50;;
59302;SDS011;45074;52.764;6.896;2022-09-09T16:16:04;5.35;;;1.55;;
59302;SDS011;45074;52.764;6.896;2022-09-09T16:18:44;6.28;;;1.77;;
59302;SDS011;45074;52.764;6.896;2022-09-09T16:21:13;4.25;;;1.58;;
59302;SDS011;45074;52.764;6.896;2022-09-09T16:23:49;5.22;;;1.58;;
59302;SDS011;45074;52.764;6.896;2022-09-09T16:26:17;3.85;;;1.65;;
59302;SDS011;45074;52.764;6.896;2022-09-09T16:28:43;5.20;;;1.70;;
59302;SDS011;45074;52.764;6.896;2022-09-09T16:31:12;5.43;;;1.70;;
59302;SDS011;45074;52.764;6.896;2022-09-09T16:33:40;4.50;;;1.60;;
59302;SDS011;45074;52.764;6.896;2022-09-09T16:36:07;4.05;;;1.67;;
59302;SDS011;45074;52.764;6.896;2022-09-09T16:38:35;4.43;;;1.60;;
59302;SDS011;45074;52.764;6.896;2022-09-09T16:41:02;4.15;;;1.63;;
59302;SDS011;45074;52.764;6.896;2022-09-09T16:43:30;5.07;;;1.63;;
59302;SDS011;45074;52.764;6.896;2022-09-09T16:45:56;3.75;;;1.50;;
59302;SDS011;45074;52.764;6.896;2022-09-09T16:48:22;6.47;;;1.90;;
59302;SDS011;45074;52.764;6.896;2022-09-09T16:50:48;4.57;;;1.63;;
59302;SDS011;45074;52.764;6.896;2022-09-09T16:53:14;5.18;;;1.75;;
59302;SDS011;45074;52.764;6.896;2022-09-09T16:55:40;5.28;;;1.63;;
59302;SDS011;45074;52.764;6.896;2022-09-09T16:58:07;4.32;;;1.50;;
59302;SDS011;45074;52.764;6.896;2022-09-09T17:00:35;4.18;;;1.50;;
59302;SDS011;45074;52.764;6.896;2022-09-09T17:03:01;4.20;;;1.67;;
59302;SDS011;45074;52.764;6.896;2022-09-09T17:05:27;3.45;;;1.60;;
59302;SDS011;45074;52.764;6.896;2022-09-09T17:07:54;3.83;;;1.67;;
59302;SDS011;45074;52.764;6.896;2022-09-09T17:10:23;4.07;;;1.50;;
59302;SDS011;45074;52.764;6.896;2022-09-09T17:12:50;4.28;;;1.60;;
59302;SDS011;45074;52.764;6.896;2022-09-09T17:15:16;4.75;;;1.65;;
59302;SDS011;45074;52.764;6.896;2022-09-09T17:17:43;3.58;;;1.40;;
59302;SDS011;45074;52.764;6.896;2022-09-09T17:20:10;4.40;;;1.52;;
59302;SDS011;45074;52.764;6.896;2022-09-09T17:22:36;6.43;;;1.70;;
59302;SDS011;45074;52.764;6.896;2022-09-09T17:25:02;5.57;;;1.73;;